Terminal Aerodrome Forecast
Issued by NWS

Home | Current Version | Previous Version | Text Only | Print | Product List | Glossary Off
Versions: 1 2 3 4 5 6 7 8 9 10 11 12 13

000
FTUS43 KFGF 010500
TAFBJI
TAF
KBJI 010520Z 0106/0206 15012KT P6SM BKN100
     FM010800 30012KT P6SM -SHRA BKN050
     FM011000 30007KT P6SM BKN050
     FM011300 27005KT P6SM SCT050
     FM011700 28010KT P6SM SCT250=

USA.gov is the U.S. government's official web portal to all federal, state and local government web resources and services.